createdAt,value
2022-09-15T00:02:13.188Z,1.30
2022-09-15T00:04:39.730Z,1.13
2022-09-15T00:07:06.204Z,0.85
2022-09-15T00:09:32.908Z,1.27
2022-09-15T00:11:59.294Z,0.98
2022-09-15T00:16:51.993Z,1.00
2022-09-15T00:19:18.380Z,1.20
2022-09-15T00:24:11.087Z,1.00
2022-09-15T00:29:04.512Z,1.20
2022-09-15T00:31:32.171Z,1.23
2022-09-15T00:34:02.387Z,1.30
2022-09-15T00:36:29.195Z,1.35
2022-09-15T00:38:56.533Z,1.13
2022-09-15T00:41:24.255Z,1.38
2022-09-15T00:43:59.598Z,1.52
2022-09-15T00:46:30.730Z,1.40
2022-09-15T00:49:09.387Z,1.30
2022-09-15T00:51:42.616Z,1.27
2022-09-15T00:54:17.630Z,1.40
2022-09-15T00:56:47.848Z,1.70
2022-09-15T00:59:21.390Z,1.50
2022-09-15T01:01:54.351Z,1.23
2022-09-15T01:04:20.803Z,1.40
2022-09-15T01:06:52.463Z,1.23
2022-09-15T01:09:31.562Z,1.30
2022-09-15T01:11:58.071Z,1.45
2022-09-15T01:14:24.496Z,1.88
2022-09-15T01:19:52.839Z,1.50
2022-09-15T01:22:56.775Z,1.30
2022-09-15T01:25:50.998Z,1.50
2022-09-15T01:28:43.775Z,1.50
2022-09-15T01:31:20.290Z,1.30
2022-09-15T01:33:54.807Z,1.58
2022-09-15T01:36:32.073Z,1.30
2022-09-15T01:39:13.645Z,1.40
2022-09-15T01:41:50.702Z,1.50
2022-09-15T01:44:28.961Z,1.50
2022-09-15T01:47:00.049Z,1.40
2022-09-15T01:49:31.278Z,1.30
2022-09-15T01:51:57.661Z,1.83
2022-09-15T01:56:52.907Z,1.60
2022-09-15T02:01:58.813Z,1.40
2022-09-15T02:04:34.749Z,2.20
2022-09-15T02:07:21.072Z,1.55
2022-09-15T02:09:54.621Z,1.50
2022-09-15T02:12:39.165Z,1.13
2022-09-15T02:15:20.762Z,1.00
2022-09-15T02:17:54.128Z,1.00
2022-09-15T02:20:34.178Z,1.00
2022-09-15T02:23:08.360Z,0.90
2022-09-15T02:25:41.125Z,1.00
2022-09-15T02:28:11.726Z,0.95
2022-09-15T02:30:41.858Z,0.80
2022-09-15T02:33:15.838Z,1.08
2022-09-15T02:35:43.490Z,1.55
2022-09-15T02:38:11.982Z,0.98
2022-09-15T02:40:43.686Z,0.90
2022-09-15T02:43:16.038Z,0.90
2022-09-15T02:45:43.294Z,0.98
2022-09-15T02:48:09.777Z,1.00
2022-09-15T02:50:37.380Z,0.70
2022-09-15T02:53:04.332Z,0.95
2022-09-15T02:55:30.863Z,0.90
2022-09-15T02:57:57.686Z,1.00
2022-09-15T03:00:24.896Z,1.08
2022-09-15T03:02:53.620Z,1.00
2022-09-15T03:05:28.577Z,1.02
2022-09-15T03:07:56.282Z,0.98
2022-09-15T03:10:24.653Z,0.90
2022-09-15T03:12:53.506Z,0.85
2022-09-15T03:15:23.955Z,2.22
2022-09-15T03:17:51.052Z,1.10
2022-09-15T03:20:28.017Z,1.00
2022-09-15T03:25:21.220Z,0.90
2022-09-15T03:27:47.794Z,0.90
2022-09-15T03:30:14.511Z,1.02
2022-09-15T03:32:40.985Z,0.85
2022-09-15T03:37:34.614Z,1.20
2022-09-15T03:40:01.163Z,1.15
2022-09-15T03:42:27.892Z,1.00
2022-09-15T03:44:54.313Z,1.20
2022-09-15T03:49:47.527Z,1.02
2022-09-15T03:52:14.071Z,1.10
2022-09-15T03:54:40.568Z,1.30
2022-09-15T03:57:07.078Z,1.27
2022-09-15T04:01:59.792Z,1.17
2022-09-15T04:06:53.127Z,1.30
2022-09-15T04:09:20.460Z,1.27
2022-09-15T04:11:47.535Z,1.23
2022-09-15T04:14:13.909Z,1.10
2022-09-15T04:19:07.412Z,1.20
2022-09-15T04:21:33.936Z,1.00
2022-09-15T04:26:32.357Z,1.20
2022-09-15T04:29:03.960Z,1.40
2022-09-15T04:31:32.181Z,1.08
2022-09-15T04:33:59.309Z,1.20
2022-09-15T04:36:28.196Z,1.67
2022-09-15T04:38:55.550Z,1.23
2022-09-15T04:41:23.587Z,1.20
2022-09-15T04:43:50.549Z,1.45
2022-09-15T04:46:18.506Z,1.13
2022-09-15T04:48:46.091Z,1.20
2022-09-15T04:51:15.780Z,1.27
2022-09-15T04:53:43.666Z,1.40
2022-09-15T04:56:13.490Z,1.10
2022-09-15T04:58:42.723Z,1.73
2022-09-15T05:01:23.393Z,1.00
2022-09-15T05:03:50.122Z,1.30
2022-09-15T05:06:19.738Z,1.23
2022-09-15T05:08:51.274Z,1.40
2022-09-15T05:11:18.811Z,1.40
2022-09-15T05:13:45.691Z,1.50
2022-09-15T05:16:18.273Z,1.10
2022-09-15T05:18:46.601Z,1.10
2022-09-15T05:21:15.720Z,1.10
2022-09-15T05:23:42.510Z,1.10
2022-09-15T05:26:12.632Z,1.10
2022-09-15T05:28:39.549Z,1.10
2022-09-15T05:31:17.681Z,1.38
2022-09-15T05:33:45.732Z,1.17
2022-09-15T05:36:14.899Z,1.08
2022-09-15T05:38:41.363Z,1.10
2022-09-15T05:43:37.835Z,1.20
2022-09-15T05:46:05.463Z,1.27
2022-09-15T05:48:32.223Z,1.27
2022-09-15T05:50:59.114Z,1.13
2022-09-15T05:53:30.872Z,0.95
2022-09-15T05:55:59.856Z,1.13
2022-09-15T05:58:27.449Z,1.30
2022-09-15T06:00:55.026Z,1.23
2022-09-15T06:03:22.595Z,2.45
2022-09-15T06:05:59.674Z,1.15
2022-09-15T06:08:30.859Z,1.30
2022-09-15T06:11:02.611Z,1.38
2022-09-15T06:13:29.302Z,0.98
2022-09-15T06:16:01.472Z,1.20
2022-09-15T06:18:28.220Z,1.30
2022-09-15T06:20:54.712Z,1.15
2022-09-15T06:25:47.503Z,1.23
2022-09-15T06:30:41.217Z,1.30
2022-09-15T06:35:35.400Z,1.02
2022-09-15T06:40:28.361Z,1.33
2022-09-15T06:42:56.876Z,1.00
2022-09-15T06:45:23.220Z,1.08
2022-09-15T06:48:13.333Z,1.15
2022-09-15T06:50:38.292Z,1.33
2022-09-15T06:55:31.022Z,1.48
2022-09-15T07:00:23.811Z,1.40
2022-09-15T07:02:50.264Z,1.40
2022-09-15T07:05:16.971Z,1.30
2022-09-15T07:07:43.679Z,1.30
2022-09-15T07:10:10.051Z,1.67
2022-09-15T07:12:37.116Z,1.48
2022-09-15T07:15:03.850Z,1.33
2022-09-15T07:17:30.263Z,1.50
2022-09-15T07:22:24.599Z,1.70
2022-09-15T07:24:50.962Z,1.67
2022-09-15T07:27:17.328Z,1.30
2022-09-15T07:32:10.215Z,1.42
2022-09-15T07:37:03.058Z,1.83
2022-09-15T07:41:55.714Z,1.70
2022-09-15T07:46:48.350Z,1.90
2022-09-15T07:49:14.745Z,1.85
2022-09-15T07:54:07.480Z,1.70
2022-09-15T07:56:34.152Z,14.48
2022-09-15T07:59:00.578Z,2.15
2022-09-15T08:03:53.956Z,1.97
2022-09-15T08:06:25.378Z,2.00
2022-09-15T08:08:56.288Z,2.38
2022-09-15T08:11:26.564Z,2.00
2022-09-15T08:13:52.979Z,2.50
2022-09-15T08:16:22.038Z,2.40
2022-09-15T08:18:49.628Z,2.33
2022-09-15T08:21:20.196Z,2.47
2022-09-15T08:23:51.572Z,2.67
2022-09-15T08:26:18.599Z,2.42
2022-09-15T08:28:44.982Z,2.47
2022-09-15T08:31:13.299Z,2.72
2022-09-15T08:33:45.253Z,2.30
2022-09-15T08:36:13.030Z,2.03
2022-09-15T08:38:41.425Z,1.95
2022-09-15T08:41:27.410Z,1.90
2022-09-15T08:44:02.684Z,1.70
2022-09-15T08:46:39.301Z,1.90
2022-09-15T08:49:51.071Z,1.70
2022-09-15T08:52:44.092Z,1.70
2022-09-15T08:55:36.901Z,1.88
2022-09-15T08:58:05.065Z,1.35
2022-09-15T09:00:32.521Z,1.60
2022-09-15T09:03:32.208Z,1.60
2022-09-15T09:06:03.242Z,1.30
2022-09-15T09:08:41.975Z,1.45
2022-09-15T09:11:24.703Z,1.55
2022-09-15T09:14:18.688Z,1.30
2022-09-15T09:17:26.583Z,1.20
2022-09-15T09:20:20.167Z,1.15
2022-09-15T09:22:50.155Z,1.60
2022-09-15T09:25:27.101Z,1.48
2022-09-15T09:27:54.659Z,1.45
2022-09-15T09:30:23.575Z,1.20
2022-09-15T09:33:13.142Z,1.40
2022-09-15T09:35:53.731Z,1.25
2022-09-15T09:38:27.427Z,1.40
2022-09-15T09:40:57.485Z,1.40
2022-09-15T09:43:28.433Z,1.10
2022-09-15T09:45:55.126Z,1.20
2022-09-15T09:48:24.033Z,1.15
2022-09-15T09:50:50.911Z,1.35
2022-09-15T09:53:33.797Z,1.20
2022-09-15T09:56:12.524Z,1.27
2022-09-15T09:58:39.051Z,1.17
2022-09-15T10:01:15.866Z,1.42
2022-09-15T10:06:23.055Z,2.25
2022-09-15T10:09:05.186Z,1.30
2022-09-15T10:11:46.735Z,1.10
2022-09-15T10:14:40.400Z,1.40
2022-09-15T10:17:14.053Z,1.33
2022-09-15T10:19:52.570Z,1.30
2022-09-15T10:22:34.311Z,1.30
2022-09-15T10:25:03.340Z,1.40
2022-09-15T10:27:32.708Z,1.60
2022-09-15T10:30:16.526Z,1.23
2022-09-15T10:32:43.186Z,1.30
2022-09-15T10:35:10.251Z,1.23
2022-09-15T10:38:08.816Z,1.20
2022-09-15T10:40:55.824Z,1.30
2022-09-15T10:43:44.344Z,1.17
2022-09-15T10:46:18.799Z,1.30
2022-09-15T10:49:09.873Z,1.35
2022-09-15T10:52:10.775Z,1.30
2022-09-15T10:54:48.504Z,1.20
2022-09-15T10:57:28.456Z,1.45
2022-09-15T11:00:11.873Z,1.50
2022-09-15T11:02:55.244Z,1.40
2022-09-15T11:05:52.892Z,1.50
2022-09-15T11:09:02.118Z,1.40
2022-09-15T11:11:59.608Z,1.50
2022-09-15T11:14:40.876Z,1.38
2022-09-15T11:17:34.878Z,1.50
2022-09-15T11:20:34.579Z,1.80
2022-09-15T11:23:15.406Z,1.60
2022-09-15T11:25:45.131Z,1.52
2022-09-15T11:28:18.548Z,1.70
2022-09-15T11:30:55.243Z,1.70
2022-09-15T11:33:29.459Z,2.10
2022-09-15T11:36:06.513Z,1.50
2022-09-15T11:41:10.887Z,1.58
2022-09-15T11:43:52.944Z,2.22
2022-09-15T11:46:29.965Z,2.13
2022-09-15T11:49:13.803Z,2.00
2022-09-15T11:51:50.624Z,1.83
2022-09-15T11:54:34.297Z,1.60
2022-09-15T11:57:00.795Z,1.30
2022-09-15T12:02:39.988Z,1.48
2022-09-15T12:05:19.500Z,1.10
2022-09-15T12:08:01.027Z,1.10
2022-09-15T12:10:31.720Z,1.13
2022-09-15T12:13:00.712Z,1.05
2022-09-15T12:15:27.373Z,1.05
2022-09-15T12:18:10.861Z,0.90
2022-09-15T12:20:57.887Z,1.00
2022-09-15T12:23:41.684Z,0.90
2022-09-15T12:26:20.092Z,0.90
2022-09-15T12:28:46.529Z,1.10
2022-09-15T12:34:03.813Z,0.90
2022-09-15T12:36:32.759Z,1.05
2022-09-15T12:39:00.635Z,0.90
2022-09-15T12:41:28.073Z,0.98
2022-09-15T12:43:57.582Z,1.02
2022-09-15T12:46:25.257Z,0.88
2022-09-15T12:48:59.149Z,1.00
2022-09-15T12:51:28.150Z,1.02
2022-09-15T12:54:07.364Z,0.90
2022-09-15T12:56:35.044Z,1.00
2022-09-15T12:59:07.171Z,0.85
2022-09-15T13:01:47.696Z,1.05
2022-09-15T13:04:25.622Z,1.00
2022-09-15T13:07:17.220Z,1.10
2022-09-15T13:09:55.347Z,1.15
2022-09-15T13:12:26.273Z,1.10
2022-09-15T13:14:55.842Z,0.95
2022-09-15T13:17:25.534Z,1.00
2022-09-15T13:19:59.725Z,0.93
2022-09-15T13:22:45.255Z,1.30
2022-09-15T13:25:13.744Z,1.10
2022-09-15T13:28:11.748Z,1.08
2022-09-15T13:35:02.345Z,1.20
2022-09-15T13:38:04.391Z,1.58
2022-09-15T13:39:46.956Z,1.45
2022-09-15T13:42:35.484Z,1.17
2022-09-15T13:45:07.800Z,1.02
2022-09-15T13:47:43.320Z,0.95
2022-09-15T13:50:40.219Z,1.20
2022-09-15T13:53:26.510Z,1.52
2022-09-15T13:55:56.047Z,1.20
2022-09-15T14:01:12.978Z,1.30
2022-09-15T14:04:07.241Z,1.58
2022-09-15T14:06:37.659Z,1.60
2022-09-15T14:09:43.326Z,1.50
2022-09-15T14:12:12.739Z,1.70
2022-09-15T14:14:44.897Z,1.48
2022-09-15T14:17:24.894Z,1.50
2022-09-15T14:19:54.592Z,1.60
2022-09-15T14:22:20.925Z,1.60
2022-09-15T14:24:47.547Z,1.42
2022-09-15T14:27:22.115Z,1.80
2022-09-15T14:29:51.075Z,1.50
2022-09-15T14:32:18.121Z,1.70
2022-09-15T14:34:45.665Z,1.70
2022-09-15T14:37:15.856Z,1.60
2022-09-15T14:39:49.346Z,1.38
2022-09-15T14:42:21.755Z,1.50
2022-09-15T14:47:35.781Z,1.73
2022-09-15T14:50:12.104Z,1.70
2022-09-15T14:52:41.565Z,1.70
2022-09-15T14:55:15.415Z,1.75
2022-09-15T14:57:48.800Z,1.75
2022-09-15T15:00:22.344Z,1.92
2022-09-15T15:03:03.826Z,1.75
2022-09-15T15:05:40.464Z,1.60
2022-09-15T15:10:36.644Z,2.03
2022-09-15T15:13:09.575Z,1.73
2022-09-15T15:15:37.961Z,1.52
2022-09-15T15:18:45.012Z,1.90
2022-09-15T15:21:38.591Z,1.58
2022-09-15T15:24:18.858Z,1.90
2022-09-15T15:26:48.875Z,1.85
2022-09-15T15:29:43.302Z,1.60
2022-09-15T15:32:36.314Z,1.58
2022-09-15T15:35:03.953Z,1.83
2022-09-15T15:37:33.761Z,1.80
2022-09-15T15:40:04.350Z,1.90
2022-09-15T15:42:30.964Z,2.05
2022-09-15T15:45:04.135Z,1.98
2022-09-15T15:47:36.874Z,2.03
2022-09-15T15:50:15.740Z,1.92
2022-09-15T15:52:42.327Z,1.90
2022-09-15T15:55:13.478Z,1.90
2022-09-15T15:57:39.925Z,2.10
2022-09-15T16:02:48.886Z,2.08
2022-09-15T16:05:15.400Z,2.30
2022-09-15T16:07:45.052Z,2.25
2022-09-15T16:10:16.853Z,2.15
2022-09-15T16:12:43.405Z,2.10
2022-09-15T16:15:15.206Z,1.90
2022-09-15T16:17:45.968Z,2.03
2022-09-15T16:20:15.679Z,2.45
2022-09-15T16:22:42.338Z,2.35
2022-09-15T16:25:28.612Z,2.22
2022-09-15T16:27:55.270Z,2.10
2022-09-15T16:30:21.645Z,2.10
2022-09-15T16:38:25.769Z,2.55
2022-09-15T16:40:52.272Z,2.78
2022-09-15T16:43:23.341Z,1.92
2022-09-15T16:45:51.083Z,2.05
2022-09-15T16:48:17.855Z,2.30
2022-09-15T16:51:01.240Z,2.08
2022-09-15T16:53:32.591Z,2.50
2022-09-15T16:55:59.093Z,2.30
2022-09-15T17:00:52.805Z,2.25
2022-09-15T17:03:21.744Z,2.63
2022-09-15T17:05:56.078Z,2.80
2022-09-15T17:08:25.568Z,2.40
2022-09-15T17:10:52.899Z,2.60
2022-09-15T17:13:23.981Z,2.60
2022-09-15T17:15:56.222Z,3.05
2022-09-15T17:18:23.371Z,2.55
2022-09-15T17:20:50.880Z,2.30
2022-09-15T17:23:24.772Z,2.67
2022-09-15T17:25:53.672Z,2.72
2022-09-15T17:28:22.824Z,2.63
2022-09-15T17:30:51.942Z,2.95
2022-09-15T17:33:20.121Z,3.10
2022-09-15T17:35:47.663Z,2.70
2022-09-15T17:38:15.163Z,3.22
2022-09-15T17:40:47.824Z,2.95
2022-09-15T17:43:17.509Z,3.40
2022-09-15T17:45:44.404Z,3.58
2022-09-15T17:48:11.914Z,3.60
2022-09-15T17:50:48.787Z,4.60
2022-09-15T17:53:26.497Z,3.70
2022-09-15T17:55:54.681Z,3.78
2022-09-15T17:58:22.186Z,3.58
2022-09-15T18:00:49.525Z,3.05
2022-09-15T18:03:19.880Z,3.55
2022-09-15T18:05:46.587Z,4.10
2022-09-15T18:08:13.283Z,3.55
2022-09-15T18:10:40.066Z,3.20
2022-09-15T18:13:07.440Z,3.30
2022-09-15T18:15:35.316Z,3.47
2022-09-15T18:18:04.366Z,3.40
2022-09-15T18:20:32.845Z,3.40
2022-09-15T18:23:00.085Z,3.50
2022-09-15T18:25:33.519Z,3.55
2022-09-15T18:28:04.249Z,3.38
2022-09-15T18:30:36.401Z,3.53
2022-09-15T18:33:03.116Z,3.22
2022-09-15T18:35:29.557Z,3.47
2022-09-15T18:40:24.602Z,3.75
2022-09-15T18:42:51.762Z,3.35
2022-09-15T18:45:18.972Z,3.17
2022-09-15T18:47:50.311Z,3.50
2022-09-15T18:50:19.149Z,3.70
2022-09-15T18:52:45.789Z,3.50
2022-09-15T18:55:18.959Z,3.38
2022-09-15T18:57:46.233Z,3.63
2022-09-15T19:00:19.347Z,3.50
2022-09-15T19:02:46.440Z,3.83
2022-09-15T19:05:15.513Z,3.45
2022-09-15T19:07:43.319Z,3.80
2022-09-15T19:10:11.311Z,3.60
2022-09-15T19:12:38.583Z,3.90
2022-09-15T19:15:10.765Z,3.50
2022-09-15T19:17:39.384Z,3.58
2022-09-15T19:20:07.498Z,4.18
2022-09-15T19:22:35.327Z,4.05
2022-09-15T19:25:02.223Z,4.20
2022-09-15T19:27:28.716Z,4.20
2022-09-15T19:32:22.128Z,3.80
2022-09-15T19:34:49.156Z,3.53
2022-09-15T19:37:18.979Z,4.03
2022-09-15T19:39:46.933Z,3.80
2022-09-15T19:44:45.956Z,4.20
2022-09-15T19:47:12.426Z,4.43
2022-09-15T19:52:06.314Z,4.88
2022-09-15T19:54:34.315Z,4.35
2022-09-15T19:57:00.779Z,4.25
2022-09-15T19:59:30.995Z,4.20
2022-09-15T20:01:58.882Z,4.18
2022-09-15T20:04:25.314Z,3.90
2022-09-15T20:06:51.835Z,4.32
2022-09-15T20:11:44.934Z,4.00
2022-09-15T20:14:11.921Z,4.65
2022-09-15T20:16:38.542Z,4.25
2022-09-15T20:19:05.613Z,4.85
2022-09-15T20:21:51.115Z,4.55
2022-09-15T20:24:19.771Z,4.47
2022-09-15T20:26:46.262Z,4.90
2022-09-15T20:31:40.088Z,4.53
2022-09-15T20:34:06.527Z,4.82
2022-09-15T20:36:36.293Z,4.60
2022-09-15T20:39:06.061Z,4.93
2022-09-15T20:41:32.459Z,4.85
2022-09-15T20:44:00.116Z,4.20
2022-09-15T20:46:28.821Z,4.75
2022-09-15T20:48:55.229Z,4.28
2022-09-15T20:51:24.294Z,5.05
2022-09-15T20:53:52.852Z,5.03
2022-09-15T20:56:24.729Z,4.90
2022-09-15T20:58:53.059Z,4.85
2022-09-15T21:01:25.031Z,4.88
2022-09-15T21:03:51.604Z,4.60
2022-09-15T21:08:47.799Z,4.32
2022-09-15T21:11:14.741Z,4.68
2022-09-15T21:13:43.266Z,5.20
2022-09-15T21:16:15.572Z,5.13
2022-09-15T21:18:43.614Z,5.05
2022-09-15T21:21:14.882Z,4.72
2022-09-15T21:23:49.454Z,5.53
2022-09-15T21:26:21.324Z,5.25
2022-09-15T21:28:48.660Z,5.30
2022-09-15T21:31:18.224Z,4.70
2022-09-15T21:33:46.526Z,4.70
2022-09-15T21:36:22.306Z,4.97
2022-09-15T21:38:50.287Z,5.43
2022-09-15T21:41:20.737Z,5.25
2022-09-15T21:43:48.293Z,4.97
2022-09-15T21:46:19.792Z,5.35
2022-09-15T21:48:47.430Z,5.13
2022-09-15T21:51:16.841Z,4.97
2022-09-15T21:53:46.463Z,5.00
2022-09-15T21:56:13.248Z,5.05
2022-09-15T21:58:42.896Z,5.00
2022-09-15T22:01:22.671Z,5.15
2022-09-15T22:03:51.674Z,4.97
2022-09-15T22:06:20.298Z,4.90
2022-09-15T22:08:47.220Z,4.88
2022-09-15T22:11:14.134Z,5.43
2022-09-15T22:13:43.474Z,5.25
2022-09-15T22:16:18.196Z,5.30
2022-09-15T22:18:45.744Z,5.35
2022-09-15T22:21:14.874Z,5.18
2022-09-15T22:23:42.580Z,5.28
2022-09-15T22:26:15.947Z,5.63
2022-09-15T22:28:42.727Z,5.18
2022-09-15T22:31:11.698Z,4.93
2022-09-15T22:33:40.876Z,5.63
2022-09-15T22:36:12.141Z,4.93
2022-09-15T22:38:38.842Z,5.50
2022-09-15T22:41:08.903Z,4.95
2022-09-15T22:43:36.253Z,5.15
2022-09-15T22:46:03.059Z,5.45
2022-09-15T22:48:29.709Z,5.00
2022-09-15T22:53:23.398Z,5.28
2022-09-15T22:56:04.863Z,4.90
2022-09-15T22:58:33.080Z,5.28
2022-09-15T23:01:10.083Z,5.10
2022-09-15T23:06:04.221Z,5.22
2022-09-15T23:08:31.463Z,4.53
2022-09-15T23:11:02.699Z,4.90
2022-09-15T23:13:29.476Z,5.30
2022-09-15T23:15:55.909Z,5.05
2022-09-15T23:18:22.368Z,5.00
2022-09-15T23:20:55.657Z,5.82
2022-09-15T23:23:22.109Z,5.07
2022-09-15T23:25:48.469Z,5.40
2022-09-15T23:28:14.948Z,5.43
2022-09-15T23:30:41.341Z,6.30
2022-09-15T23:33:07.704Z,5.10
2022-09-15T23:35:35.547Z,5.65
2022-09-15T23:38:02.458Z,5.10
2022-09-15T23:40:29.528Z,5.78
2022-09-15T23:42:55.941Z,5.03
2022-09-15T23:45:22.307Z,5.50
2022-09-15T23:47:48.973Z,5.40
2022-09-15T23:50:15.424Z,6.55
2022-09-15T23:52:41.824Z,5.60
2022-09-15T23:55:08.781Z,5.30
2022-09-15T23:57:35.262Z,5.43
